sensor_id;sensor_type;location;lat;lon;timestamp;P1;durP1;ratioP1;P2;durP2;ratioP2
11827;SDS011;5971;49.646;8.568;2023-07-16T00:01:41;5.55;;;2.92;;
11827;SDS011;5971;49.646;8.568;2023-07-16T00:04:43;6.15;;;3.28;;
11827;SDS011;5971;49.646;8.568;2023-07-16T00:07:44;5.10;;;2.88;;
11827;SDS011;5971;49.646;8.568;2023-07-16T00:10:46;5.72;;;3.00;;
11827;SDS011;5971;49.646;8.568;2023-07-16T00:13:47;4.85;;;3.08;;
11827;SDS011;5971;49.646;8.568;2023-07-16T00:16:49;3.90;;;2.55;;
11827;SDS011;5971;49.646;8.568;2023-07-16T00:19:50;4.72;;;2.42;;
11827;SDS011;5971;49.646;8.568;2023-07-16T00:22:51;5.90;;;2.72;;
11827;SDS011;5971;49.646;8.568;2023-07-16T00:25:53;4.70;;;2.50;;
11827;SDS011;5971;49.646;8.568;2023-07-16T00:28:54;4.32;;;2.63;;
11827;SDS011;5971;49.646;8.568;2023-07-16T00:31:55;5.65;;;2.67;;
11827;SDS011;5971;49.646;8.568;2023-07-16T00:34:57;4.45;;;2.50;;
11827;SDS011;5971;49.646;8.568;2023-07-16T00:37:58;4.93;;;2.60;;
11827;SDS011;5971;49.646;8.568;2023-07-16T00:40:59;4.32;;;2.63;;
11827;SDS011;5971;49.646;8.568;2023-07-16T00:44:01;5.22;;;2.90;;
11827;SDS011;5971;49.646;8.568;2023-07-16T00:47:02;4.10;;;2.42;;
11827;SDS011;5971;49.646;8.568;2023-07-16T00:50:04;5.22;;;2.63;;
11827;SDS011;5971;49.646;8.568;2023-07-16T00:53:06;5.20;;;2.58;;
11827;SDS011;5971;49.646;8.568;2023-07-16T00:56:08;5.03;;;2.50;;
11827;SDS011;5971;49.646;8.568;2023-07-16T00:59:10;8.02;;;2.55;;
11827;SDS011;5971;49.646;8.568;2023-07-16T01:02:11;4.50;;;2.42;;
11827;SDS011;5971;49.646;8.568;2023-07-16T01:05:12;6.13;;;2.50;;
11827;SDS011;5971;49.646;8.568;2023-07-16T01:08:14;5.03;;;2.80;;
11827;SDS011;5971;49.646;8.568;2023-07-16T01:11:17;6.20;;;2.50;;
11827;SDS011;5971;49.646;8.568;2023-07-16T01:14:18;5.70;;;2.67;;
11827;SDS011;5971;49.646;8.568;2023-07-16T01:17:20;4.47;;;2.60;;
11827;SDS011;5971;49.646;8.568;2023-07-16T01:20:21;5.97;;;2.60;;
11827;SDS011;5971;49.646;8.568;2023-07-16T01:30:02;3.60;;;2.10;;
11827;SDS011;5971;49.646;8.568;2023-07-16T01:33:04;3.72;;;2.30;;
11827;SDS011;5971;49.646;8.568;2023-07-16T01:36:06;3.53;;;2.15;;
11827;SDS011;5971;49.646;8.568;2023-07-16T01:39:08;4.60;;;1.88;;
11827;SDS011;5971;49.646;8.568;2023-07-16T01:42:10;4.22;;;2.30;;
11827;SDS011;5971;49.646;8.568;2023-07-16T01:45:11;4.32;;;2.50;;
11827;SDS011;5971;49.646;8.568;2023-07-16T01:48:32;5.32;;;2.35;;
11827;SDS011;5971;49.646;8.568;2023-07-16T01:51:34;4.22;;;2.13;;
11827;SDS011;5971;49.646;8.568;2023-07-16T01:54:36;5.80;;;2.22;;
11827;SDS011;5971;49.646;8.568;2023-07-16T01:57:37;4.43;;;2.05;;
11827;SDS011;5971;49.646;8.568;2023-07-16T02:00:38;4.03;;;2.22;;
11827;SDS011;5971;49.646;8.568;2023-07-16T02:03:40;4.90;;;2.70;;
11827;SDS011;5971;49.646;8.568;2023-07-16T02:06:41;4.25;;;2.22;;
11827;SDS011;5971;49.646;8.568;2023-07-16T02:09:43;3.28;;;2.03;;
11827;SDS011;5971;49.646;8.568;2023-07-16T02:12:44;5.05;;;2.40;;
11827;SDS011;5971;49.646;8.568;2023-07-16T02:15:46;3.72;;;2.42;;
11827;SDS011;5971;49.646;8.568;2023-07-16T02:18:47;5.28;;;2.28;;
11827;SDS011;5971;49.646;8.568;2023-07-16T02:21:49;4.47;;;2.30;;
11827;SDS011;5971;49.646;8.568;2023-07-16T02:24:50;4.00;;;2.25;;
11827;SDS011;5971;49.646;8.568;2023-07-16T02:27:51;3.38;;;2.13;;
11827;SDS011;5971;49.646;8.568;2023-07-16T02:30:53;3.35;;;2.20;;
11827;SDS011;5971;49.646;8.568;2023-07-16T02:33:54;3.70;;;1.80;;
11827;SDS011;5971;49.646;8.568;2023-07-16T02:36:55;4.78;;;2.58;;
11827;SDS011;5971;49.646;8.568;2023-07-16T02:39:56;4.03;;;2.22;;
11827;SDS011;5971;49.646;8.568;2023-07-16T02:42:58;5.40;;;2.25;;
11827;SDS011;5971;49.646;8.568;2023-07-16T02:45:59;3.65;;;1.88;;
11827;SDS011;5971;49.646;8.568;2023-07-16T02:49:02;3.95;;;2.17;;
11827;SDS011;5971;49.646;8.568;2023-07-16T02:52:05;4.70;;;1.95;;
11827;SDS011;5971;49.646;8.568;2023-07-16T02:55:07;3.30;;;1.90;;
11827;SDS011;5971;49.646;8.568;2023-07-16T02:58:08;5.32;;;2.20;;
11827;SDS011;5971;49.646;8.568;2023-07-16T03:01:09;4.85;;;2.42;;
11827;SDS011;5971;49.646;8.568;2023-07-16T03:04:11;4.80;;;2.33;;
11827;SDS011;5971;49.646;8.568;2023-07-16T03:07:12;5.03;;;1.90;;
11827;SDS011;5971;49.646;8.568;2023-07-16T03:10:14;3.72;;;2.00;;
11827;SDS011;5971;49.646;8.568;2023-07-16T03:13:15;3.25;;;1.65;;
11827;SDS011;5971;49.646;8.568;2023-07-16T03:16:16;5.22;;;1.88;;
11827;SDS011;5971;49.646;8.568;2023-07-16T03:19:18;5.15;;;1.83;;
11827;SDS011;5971;49.646;8.568;2023-07-16T03:22:19;5.25;;;2.53;;
11827;SDS011;5971;49.646;8.568;2023-07-16T03:25:21;5.03;;;2.38;;
11827;SDS011;5971;49.646;8.568;2023-07-16T03:28:22;5.18;;;2.53;;
11827;SDS011;5971;49.646;8.568;2023-07-16T03:31:23;5.90;;;2.22;;
11827;SDS011;5971;49.646;8.568;2023-07-16T03:34:25;8.50;;;2.42;;
11827;SDS011;5971;49.646;8.568;2023-07-16T03:37:26;5.55;;;2.17;;
11827;SDS011;5971;49.646;8.568;2023-07-16T03:40:28;6.93;;;2.38;;
11827;SDS011;5971;49.646;8.568;2023-07-16T03:43:29;5.05;;;2.38;;
11827;SDS011;5971;49.646;8.568;2023-07-16T03:46:30;5.60;;;2.08;;
11827;SDS011;5971;49.646;8.568;2023-07-16T03:49:32;4.95;;;2.20;;
11827;SDS011;5971;49.646;8.568;2023-07-16T03:52:33;6.85;;;2.22;;
11827;SDS011;5971;49.646;8.568;2023-07-16T03:55:34;4.32;;;2.00;;
11827;SDS011;5971;49.646;8.568;2023-07-16T03:58:36;3.65;;;1.77;;
11827;SDS011;5971;49.646;8.568;2023-07-16T04:01:38;6.97;;;2.33;;
11827;SDS011;5971;49.646;8.568;2023-07-16T04:04:39;3.60;;;2.03;;
11827;SDS011;5971;49.646;8.568;2023-07-16T04:07:40;4.22;;;2.03;;
11827;SDS011;5971;49.646;8.568;2023-07-16T04:10:42;4.47;;;1.75;;
11827;SDS011;5971;49.646;8.568;2023-07-16T04:13:43;3.97;;;2.30;;
11827;SDS011;5971;49.646;8.568;2023-07-16T04:16:45;3.25;;;1.88;;
11827;SDS011;5971;49.646;8.568;2023-07-16T04:19:46;6.18;;;2.08;;
11827;SDS011;5971;49.646;8.568;2023-07-16T04:22:47;4.57;;;1.80;;
11827;SDS011;5971;49.646;8.568;2023-07-16T04:25:52;4.22;;;1.83;;
11827;SDS011;5971;49.646;8.568;2023-07-16T04:28:54;6.22;;;2.20;;
11827;SDS011;5971;49.646;8.568;2023-07-16T04:31:55;5.95;;;2.08;;
11827;SDS011;5971;49.646;8.568;2023-07-16T04:34:57;6.25;;;1.80;;
11827;SDS011;5971;49.646;8.568;2023-07-16T04:37:58;3.45;;;1.85;;
11827;SDS011;5971;49.646;8.568;2023-07-16T04:40:59;6.68;;;2.13;;
11827;SDS011;5971;49.646;8.568;2023-07-16T04:44:01;3.72;;;1.80;;
11827;SDS011;5971;49.646;8.568;2023-07-16T04:47:02;3.72;;;2.10;;
11827;SDS011;5971;49.646;8.568;2023-07-16T04:50:04;3.88;;;1.70;;
11827;SDS011;5971;49.646;8.568;2023-07-16T04:53:05;3.55;;;1.70;;
11827;SDS011;5971;49.646;8.568;2023-07-16T04:56:13;3.78;;;1.80;;
11827;SDS011;5971;49.646;8.568;2023-07-16T04:59:15;3.05;;;1.80;;
11827;SDS011;5971;49.646;8.568;2023-07-16T05:02:17;5.60;;;2.10;;
11827;SDS011;5971;49.646;8.568;2023-07-16T05:05:19;5.43;;;1.90;;
11827;SDS011;5971;49.646;8.568;2023-07-16T05:08:20;7.22;;;1.98;;
11827;SDS011;5971;49.646;8.568;2023-07-16T05:11:21;3.60;;;1.73;;
11827;SDS011;5971;49.646;8.568;2023-07-16T05:14:25;3.72;;;1.77;;
11827;SDS011;5971;49.646;8.568;2023-07-16T05:17:27;7.20;;;1.77;;
11827;SDS011;5971;49.646;8.568;2023-07-16T05:20:29;6.03;;;2.30;;
11827;SDS011;5971;49.646;8.568;2023-07-16T05:23:30;4.13;;;1.73;;
11827;SDS011;5971;49.646;8.568;2023-07-16T05:26:34;6.55;;;2.00;;
11827;SDS011;5971;49.646;8.568;2023-07-16T05:29:38;4.05;;;1.85;;
11827;SDS011;5971;49.646;8.568;2023-07-16T05:32:41;3.55;;;1.88;;
11827;SDS011;5971;49.646;8.568;2023-07-16T05:35:48;4.35;;;1.90;;
11827;SDS011;5971;49.646;8.568;2023-07-16T05:38:49;6.32;;;2.20;;
11827;SDS011;5971;49.646;8.568;2023-07-16T05:41:51;3.60;;;1.88;;
11827;SDS011;5971;49.646;8.568;2023-07-16T05:44:52;3.47;;;1.80;;
11827;SDS011;5971;49.646;8.568;2023-07-16T05:47:56;4.13;;;2.10;;
11827;SDS011;5971;49.646;8.568;2023-07-16T05:50:57;4.75;;;1.92;;
11827;SDS011;5971;49.646;8.568;2023-07-16T05:53:58;4.63;;;1.80;;
11827;SDS011;5971;49.646;8.568;2023-07-16T05:57:00;4.88;;;1.85;;
11827;SDS011;5971;49.646;8.568;2023-07-16T06:00:01;3.28;;;2.33;;
11827;SDS011;5971;49.646;8.568;2023-07-16T06:06:10;5.78;;;1.83;;
11827;SDS011;5971;49.646;8.568;2023-07-16T06:09:11;3.65;;;1.95;;
11827;SDS011;5971;49.646;8.568;2023-07-16T06:12:13;5.75;;;1.45;;
11827;SDS011;5971;49.646;8.568;2023-07-16T06:15:15;6.05;;;1.60;;
11827;SDS011;5971;49.646;8.568;2023-07-16T06:18:16;5.28;;;1.63;;
11827;SDS011;5971;49.646;8.568;2023-07-16T06:21:22;4.50;;;1.60;;
11827;SDS011;5971;49.646;8.568;2023-07-16T06:24:23;5.88;;;1.70;;
11827;SDS011;5971;49.646;8.568;2023-07-16T06:27:24;4.60;;;1.65;;
11827;SDS011;5971;49.646;8.568;2023-07-16T06:30:26;5.82;;;1.80;;
11827;SDS011;5971;49.646;8.568;2023-07-16T06:33:27;5.90;;;1.90;;
11827;SDS011;5971;49.646;8.568;2023-07-16T06:36:29;3.58;;;1.42;;
11827;SDS011;5971;49.646;8.568;2023-07-16T06:39:30;3.75;;;1.52;;
11827;SDS011;5971;49.646;8.568;2023-07-16T06:42:32;4.75;;;1.67;;
11827;SDS011;5971;49.646;8.568;2023-07-16T06:45:34;5.10;;;1.75;;
11827;SDS011;5971;49.646;8.568;2023-07-16T06:48:35;4.45;;;1.95;;
11827;SDS011;5971;49.646;8.568;2023-07-16T06:51:37;4.50;;;2.10;;
11827;SDS011;5971;49.646;8.568;2023-07-16T06:54:38;4.05;;;1.90;;
11827;SDS011;5971;49.646;8.568;2023-07-16T06:57:42;5.13;;;2.03;;
11827;SDS011;5971;49.646;8.568;2023-07-16T07:00:43;7.50;;;1.52;;
11827;SDS011;5971;49.646;8.568;2023-07-16T07:03:45;7.38;;;1.70;;
11827;SDS011;5971;49.646;8.568;2023-07-16T07:06:47;3.90;;;1.90;;
11827;SDS011;5971;49.646;8.568;2023-07-16T07:09:48;5.35;;;1.85;;
11827;SDS011;5971;49.646;8.568;2023-07-16T07:12:52;4.70;;;2.17;;
11827;SDS011;5971;49.646;8.568;2023-07-16T07:15:54;6.75;;;2.13;;
11827;SDS011;5971;49.646;8.568;2023-07-16T07:18:56;3.85;;;1.90;;
11827;SDS011;5971;49.646;8.568;2023-07-16T07:21:57;4.07;;;1.90;;
11827;SDS011;5971;49.646;8.568;2023-07-16T07:24:59;5.38;;;1.65;;
11827;SDS011;5971;49.646;8.568;2023-07-16T07:28:00;4.00;;;1.95;;
11827;SDS011;5971;49.646;8.568;2023-07-16T07:31:01;3.55;;;1.83;;
11827;SDS011;5971;49.646;8.568;2023-07-16T07:34:03;3.55;;;1.75;;
11827;SDS011;5971;49.646;8.568;2023-07-16T07:37:05;5.05;;;1.90;;
11827;SDS011;5971;49.646;8.568;2023-07-16T07:40:06;3.92;;;1.60;;
11827;SDS011;5971;49.646;8.568;2023-07-16T07:43:08;5.45;;;2.00;;
11827;SDS011;5971;49.646;8.568;2023-07-16T07:46:10;5.18;;;1.95;;
11827;SDS011;5971;49.646;8.568;2023-07-16T07:49:11;4.20;;;1.60;;
11827;SDS011;5971;49.646;8.568;2023-07-16T07:52:13;4.70;;;1.83;;
11827;SDS011;5971;49.646;8.568;2023-07-16T07:55:14;3.72;;;1.65;;
11827;SDS011;5971;49.646;8.568;2023-07-16T07:58:15;4.93;;;1.65;;
11827;SDS011;5971;49.646;8.568;2023-07-16T08:01:17;5.10;;;1.98;;
11827;SDS011;5971;49.646;8.568;2023-07-16T08:04:18;3.95;;;1.80;;
11827;SDS011;5971;49.646;8.568;2023-07-16T08:07:20;4.75;;;1.88;;
11827;SDS011;5971;49.646;8.568;2023-07-16T08:10:22;4.55;;;1.95;;
11827;SDS011;5971;49.646;8.568;2023-07-16T08:13:23;3.83;;;1.90;;
11827;SDS011;5971;49.646;8.568;2023-07-16T08:16:24;3.17;;;1.65;;
11827;SDS011;5971;49.646;8.568;2023-07-16T08:19:26;6.25;;;1.80;;
11827;SDS011;5971;49.646;8.568;2023-07-16T08:22:27;4.60;;;1.83;;
11827;SDS011;5971;49.646;8.568;2023-07-16T08:25:29;3.65;;;1.80;;
11827;SDS011;5971;49.646;8.568;2023-07-16T08:28:30;5.65;;;1.42;;
11827;SDS011;5971;49.646;8.568;2023-07-16T08:31:32;3.85;;;1.50;;
11827;SDS011;5971;49.646;8.568;2023-07-16T08:34:33;3.38;;;1.50;;
11827;SDS011;5971;49.646;8.568;2023-07-16T08:37:34;4.15;;;1.83;;
11827;SDS011;5971;49.646;8.568;2023-07-16T08:40:38;4.90;;;2.05;;
11827;SDS011;5971;49.646;8.568;2023-07-16T08:43:40;3.70;;;1.63;;
11827;SDS011;5971;49.646;8.568;2023-07-16T08:46:42;3.95;;;1.60;;
11827;SDS011;5971;49.646;8.568;2023-07-16T08:49:50;3.58;;;1.95;;
11827;SDS011;5971;49.646;8.568;2023-07-16T08:52:54;4.68;;;1.75;;
11827;SDS011;5971;49.646;8.568;2023-07-16T08:55:56;5.00;;;1.75;;
11827;SDS011;5971;49.646;8.568;2023-07-16T08:58:58;4.68;;;2.05;;
11827;SDS011;5971;49.646;8.568;2023-07-16T09:02:00;3.65;;;1.80;;
11827;SDS011;5971;49.646;8.568;2023-07-16T09:05:02;3.50;;;1.92;;
11827;SDS011;5971;49.646;8.568;2023-07-16T09:08:04;4.47;;;1.60;;
11827;SDS011;5971;49.646;8.568;2023-07-16T09:11:05;4.05;;;1.52;;
11827;SDS011;5971;49.646;8.568;2023-07-16T09:14:06;5.70;;;1.80;;
11827;SDS011;5971;49.646;8.568;2023-07-16T09:17:08;2.55;;;1.33;;
11827;SDS011;5971;49.646;8.568;2023-07-16T09:20:09;3.45;;;1.60;;
11827;SDS011;5971;49.646;8.568;2023-07-16T09:23:11;3.92;;;1.58;;
11827;SDS011;5971;49.646;8.568;2023-07-16T09:26:13;4.55;;;1.70;;
11827;SDS011;5971;49.646;8.568;2023-07-16T09:29:14;3.88;;;1.58;;
11827;SDS011;5971;49.646;8.568;2023-07-16T09:32:15;3.38;;;1.35;;
11827;SDS011;5971;49.646;8.568;2023-07-16T09:35:17;2.92;;;1.52;;
11827;SDS011;5971;49.646;8.568;2023-07-16T09:38:18;3.95;;;1.50;;
11827;SDS011;5971;49.646;8.568;2023-07-16T09:41:20;4.05;;;1.77;;
11827;SDS011;5971;49.646;8.568;2023-07-16T09:44:22;3.42;;;1.40;;
11827;SDS011;5971;49.646;8.568;2023-07-16T09:47:23;4.60;;;1.95;;
11827;SDS011;5971;49.646;8.568;2023-07-16T09:50:30;3.90;;;1.63;;
11827;SDS011;5971;49.646;8.568;2023-07-16T09:53:32;4.05;;;1.73;;
11827;SDS011;5971;49.646;8.568;2023-07-16T09:56:35;4.65;;;1.58;;
11827;SDS011;5971;49.646;8.568;2023-07-16T09:59:38;4.00;;;1.50;;
11827;SDS011;5971;49.646;8.568;2023-07-16T10:02:40;3.35;;;1.67;;
11827;SDS011;5971;49.646;8.568;2023-07-16T10:05:42;3.45;;;1.80;;
11827;SDS011;5971;49.646;8.568;2023-07-16T10:08:48;2.90;;;1.45;;
11827;SDS011;5971;49.646;8.568;2023-07-16T10:11:50;3.92;;;1.55;;
11827;SDS011;5971;49.646;8.568;2023-07-16T10:14:54;3.05;;;1.50;;
11827;SDS011;5971;49.646;8.568;2023-07-16T10:18:01;4.32;;;2.20;;
11827;SDS011;5971;49.646;8.568;2023-07-16T10:21:03;2.70;;;1.52;;
11827;SDS011;5971;49.646;8.568;2023-07-16T10:24:16;3.25;;;1.42;;
11827;SDS011;5971;49.646;8.568;2023-07-16T10:27:32;4.28;;;1.33;;
11827;SDS011;5971;49.646;8.568;2023-07-16T10:30:33;2.72;;;1.58;;
11827;SDS011;5971;49.646;8.568;2023-07-16T10:33:36;6.32;;;1.35;;
11827;SDS011;5971;49.646;8.568;2023-07-16T10:39:53;2.58;;;1.30;;
11827;SDS011;5971;49.646;8.568;2023-07-16T10:42:55;4.20;;;1.55;;
11827;SDS011;5971;49.646;8.568;2023-07-16T10:45:56;3.10;;;1.63;;
11827;SDS011;5971;49.646;8.568;2023-07-16T10:48:58;5.47;;;1.73;;
11827;SDS011;5971;49.646;8.568;2023-07-16T10:52:00;3.78;;;1.42;;
11827;SDS011;5971;49.646;8.568;2023-07-16T10:55:01;5.22;;;1.60;;
11827;SDS011;5971;49.646;8.568;2023-07-16T10:58:03;4.75;;;1.40;;
11827;SDS011;5971;49.646;8.568;2023-07-16T11:01:05;3.28;;;1.42;;
11827;SDS011;5971;49.646;8.568;2023-07-16T11:04:12;3.03;;;1.42;;
11827;SDS011;5971;49.646;8.568;2023-07-16T11:07:13;2.60;;;1.38;;
11827;SDS011;5971;49.646;8.568;2023-07-16T11:10:18;2.53;;;1.40;;
11827;SDS011;5971;49.646;8.568;2023-07-16T11:13:19;4.82;;;1.50;;
11827;SDS011;5971;49.646;8.568;2023-07-16T11:16:21;4.57;;;1.77;;
11827;SDS011;5971;49.646;8.568;2023-07-16T11:19:23;4.13;;;1.50;;
11827;SDS011;5971;49.646;8.568;2023-07-16T11:22:24;3.60;;;1.50;;
11827;SDS011;5971;49.646;8.568;2023-07-16T11:25:27;6.22;;;1.50;;
11827;SDS011;5971;49.646;8.568;2023-07-16T11:28:41;3.20;;;1.60;;
11827;SDS011;5971;49.646;8.568;2023-07-16T11:31:42;3.83;;;1.70;;
11827;SDS011;5971;49.646;8.568;2023-07-16T11:34:54;2.88;;;1.48;;
11827;SDS011;5971;49.646;8.568;2023-07-16T11:37:55;3.20;;;1.42;;
11827;SDS011;5971;49.646;8.568;2023-07-16T11:40:59;3.53;;;1.20;;
11827;SDS011;5971;49.646;8.568;2023-07-16T11:44:01;5.30;;;2.03;;
11827;SDS011;5971;49.646;8.568;2023-07-16T11:47:03;4.35;;;1.63;;
11827;SDS011;5971;49.646;8.568;2023-07-16T11:50:05;3.55;;;1.60;;
11827;SDS011;5971;49.646;8.568;2023-07-16T11:53:06;2.78;;;1.40;;
11827;SDS011;5971;49.646;8.568;2023-07-16T11:56:08;3.58;;;1.52;;
11827;SDS011;5971;49.646;8.568;2023-07-16T11:59:10;2.40;;;1.35;;
11827;SDS011;5971;49.646;8.568;2023-07-16T12:02:14;3.42;;;1.60;;
11827;SDS011;5971;49.646;8.568;2023-07-16T12:05:16;2.90;;;1.60;;
11827;SDS011;5971;49.646;8.568;2023-07-16T12:08:18;3.17;;;1.40;;
11827;SDS011;5971;49.646;8.568;2023-07-16T12:11:19;3.97;;;1.88;;
11827;SDS011;5971;49.646;8.568;2023-07-16T12:14:20;2.47;;;1.33;;
11827;SDS011;5971;49.646;8.568;2023-07-16T12:17:22;4.75;;;1.50;;
11827;SDS011;5971;49.646;8.568;2023-07-16T12:20:23;3.00;;;1.63;;
11827;SDS011;5971;49.646;8.568;2023-07-16T12:23:25;3.03;;;1.45;;
11827;SDS011;5971;49.646;8.568;2023-07-16T12:26:26;3.45;;;1.70;;
11827;SDS011;5971;49.646;8.568;2023-07-16T12:29:28;3.35;;;1.55;;
11827;SDS011;5971;49.646;8.568;2023-07-16T12:32:29;2.85;;;1.50;;
11827;SDS011;5971;49.646;8.568;2023-07-16T12:35:31;3.92;;;1.60;;
11827;SDS011;5971;49.646;8.568;2023-07-16T12:38:32;3.25;;;1.65;;
11827;SDS011;5971;49.646;8.568;2023-07-16T12:41:34;3.15;;;1.67;;
11827;SDS011;5971;49.646;8.568;2023-07-16T12:44:35;3.88;;;1.65;;
11827;SDS011;5971;49.646;8.568;2023-07-16T12:47:36;3.00;;;1.50;;
11827;SDS011;5971;49.646;8.568;2023-07-16T12:50:40;5.07;;;1.55;;
11827;SDS011;5971;49.646;8.568;2023-07-16T12:53:41;3.92;;;1.65;;
11827;SDS011;5971;49.646;8.568;2023-07-16T12:56:44;3.33;;;1.83;;
11827;SDS011;5971;49.646;8.568;2023-07-16T12:59:46;4.07;;;1.63;;
11827;SDS011;5971;49.646;8.568;2023-07-16T13:02:47;2.80;;;1.60;;
11827;SDS011;5971;49.646;8.568;2023-07-16T13:05:49;2.67;;;1.42;;
11827;SDS011;5971;49.646;8.568;2023-07-16T13:08:50;3.55;;;1.52;;
11827;SDS011;5971;49.646;8.568;2023-07-16T13:11:52;3.47;;;1.92;;
11827;SDS011;5971;49.646;8.568;2023-07-16T13:14:53;3.60;;;1.63;;
11827;SDS011;5971;49.646;8.568;2023-07-16T13:17:54;3.58;;;1.92;;
11827;SDS011;5971;49.646;8.568;2023-07-16T13:20:56;4.15;;;2.00;;
11827;SDS011;5971;49.646;8.568;2023-07-16T13:23:57;3.75;;;1.88;;
11827;SDS011;5971;49.646;8.568;2023-07-16T13:26:59;4.00;;;1.80;;
11827;SDS011;5971;49.646;8.568;2023-07-16T13:30:00;3.28;;;1.95;;
11827;SDS011;5971;49.646;8.568;2023-07-16T13:33:02;3.25;;;1.80;;
11827;SDS011;5971;49.646;8.568;2023-07-16T13:36:04;3.72;;;2.47;;
11827;SDS011;5971;49.646;8.568;2023-07-16T13:39:06;4.68;;;2.00;;
11827;SDS011;5971;49.646;8.568;2023-07-16T13:42:08;5.25;;;2.05;;
11827;SDS011;5971;49.646;8.568;2023-07-16T13:45:23;3.63;;;1.95;;
11827;SDS011;5971;49.646;8.568;2023-07-16T13:48:25;3.80;;;1.73;;
11827;SDS011;5971;49.646;8.568;2023-07-16T13:51:26;6.93;;;1.85;;
11827;SDS011;5971;49.646;8.568;2023-07-16T13:54:27;4.07;;;1.50;;
11827;SDS011;5971;49.646;8.568;2023-07-16T13:57:29;3.10;;;1.75;;
11827;SDS011;5971;49.646;8.568;2023-07-16T14:00:30;4.22;;;1.70;;
11827;SDS011;5971;49.646;8.568;2023-07-16T14:03:32;3.95;;;1.77;;
11827;SDS011;5971;49.646;8.568;2023-07-16T14:06:33;4.65;;;2.17;;
11827;SDS011;5971;49.646;8.568;2023-07-16T14:09:35;3.30;;;1.83;;
11827;SDS011;5971;49.646;8.568;2023-07-16T14:12:36;3.28;;;1.83;;
11827;SDS011;5971;49.646;8.568;2023-07-16T14:15:38;3.60;;;1.85;;
11827;SDS011;5971;49.646;8.568;2023-07-16T14:18:39;3.28;;;1.90;;
11827;SDS011;5971;49.646;8.568;2023-07-16T14:21:41;4.45;;;1.77;;
11827;SDS011;5971;49.646;8.568;2023-07-16T14:24:42;3.50;;;1.73;;
11827;SDS011;5971;49.646;8.568;2023-07-16T14:27:44;4.28;;;2.03;;
11827;SDS011;5971;49.646;8.568;2023-07-16T14:30:45;5.53;;;1.90;;
11827;SDS011;5971;49.646;8.568;2023-07-16T14:33:46;3.40;;;1.90;;
11827;SDS011;5971;49.646;8.568;2023-07-16T14:36:48;3.60;;;1.95;;
11827;SDS011;5971;49.646;8.568;2023-07-16T14:39:49;3.85;;;1.85;;
11827;SDS011;5971;49.646;8.568;2023-07-16T14:42:51;2.70;;;1.55;;
11827;SDS011;5971;49.646;8.568;2023-07-16T14:45:52;3.97;;;1.73;;
11827;SDS011;5971;49.646;8.568;2023-07-16T14:48:54;3.38;;;1.80;;
11827;SDS011;5971;49.646;8.568;2023-07-16T14:51:57;3.78;;;1.92;;
11827;SDS011;5971;49.646;8.568;2023-07-16T14:54:58;4.18;;;1.65;;
11827;SDS011;5971;49.646;8.568;2023-07-16T14:58:00;3.40;;;2.10;;
11827;SDS011;5971;49.646;8.568;2023-07-16T15:01:01;4.45;;;1.73;;
11827;SDS011;5971;49.646;8.568;2023-07-16T15:04:09;3.85;;;1.75;;
11827;SDS011;5971;49.646;8.568;2023-07-16T15:07:10;4.88;;;2.00;;
11827;SDS011;5971;49.646;8.568;2023-07-16T15:10:12;3.55;;;2.03;;
11827;SDS011;5971;49.646;8.568;2023-07-16T15:13:13;4.03;;;2.00;;
11827;SDS011;5971;49.646;8.568;2023-07-16T15:16:15;3.28;;;1.88;;
11827;SDS011;5971;49.646;8.568;2023-07-16T15:19:17;3.28;;;2.03;;
11827;SDS011;5971;49.646;8.568;2023-07-16T15:22:19;3.38;;;1.88;;
11827;SDS011;5971;49.646;8.568;2023-07-16T15:25:21;3.70;;;2.10;;
11827;SDS011;5971;49.646;8.568;2023-07-16T15:28:23;4.45;;;2.22;;
11827;SDS011;5971;49.646;8.568;2023-07-16T15:31:24;4.05;;;2.13;;
11827;SDS011;5971;49.646;8.568;2023-07-16T15:34:29;4.20;;;2.03;;
11827;SDS011;5971;49.646;8.568;2023-07-16T15:37:30;4.88;;;2.70;;
11827;SDS011;5971;49.646;8.568;2023-07-16T15:40:33;4.03;;;2.10;;
11827;SDS011;5971;49.646;8.568;2023-07-16T15:46:36;4.38;;;1.92;;
11827;SDS011;5971;49.646;8.568;2023-07-16T15:49:38;4.22;;;2.10;;
11827;SDS011;5971;49.646;8.568;2023-07-16T15:52:40;3.90;;;2.17;;
11827;SDS011;5971;49.646;8.568;2023-07-16T15:55:41;4.45;;;2.13;;
11827;SDS011;5971;49.646;8.568;2023-07-16T15:58:43;3.22;;;1.85;;
11827;SDS011;5971;49.646;8.568;2023-07-16T16:01:44;3.92;;;2.05;;
11827;SDS011;5971;49.646;8.568;2023-07-16T16:04:46;3.30;;;1.90;;
11827;SDS011;5971;49.646;8.568;2023-07-16T16:08:30;6.10;;;2.35;;
11827;SDS011;5971;49.646;8.568;2023-07-16T16:11:13;4.28;;;2.10;;
11827;SDS011;5971;49.646;8.568;2023-07-16T16:14:15;3.10;;;1.90;;
11827;SDS011;5971;49.646;8.568;2023-07-16T16:17:17;5.28;;;2.67;;
11827;SDS011;5971;49.646;8.568;2023-07-16T16:20:18;4.40;;;2.30;;
11827;SDS011;5971;49.646;8.568;2023-07-16T16:23:20;5.40;;;2.10;;
11827;SDS011;5971;49.646;8.568;2023-07-16T16:26:21;4.80;;;2.38;;
11827;SDS011;5971;49.646;8.568;2023-07-16T16:29:22;3.72;;;1.98;;
11827;SDS011;5971;49.646;8.568;2023-07-16T16:32:24;4.20;;;2.10;;
11827;SDS011;5971;49.646;8.568;2023-07-16T16:35:25;4.10;;;1.95;;
11827;SDS011;5971;49.646;8.568;2023-07-16T16:38:27;4.45;;;2.40;;
11827;SDS011;5971;49.646;8.568;2023-07-16T16:41:28;5.38;;;2.17;;
11827;SDS011;5971;49.646;8.568;2023-07-16T16:44:29;4.85;;;2.25;;
11827;SDS011;5971;49.646;8.568;2023-07-16T16:47:31;4.05;;;2.20;;
11827;SDS011;5971;49.646;8.568;2023-07-16T16:50:33;4.00;;;2.17;;
11827;SDS011;5971;49.646;8.568;2023-07-16T16:53:34;4.25;;;2.05;;
11827;SDS011;5971;49.646;8.568;2023-07-16T16:56:35;4.80;;;1.83;;
11827;SDS011;5971;49.646;8.568;2023-07-16T16:59:37;4.53;;;1.83;;
11827;SDS011;5971;49.646;8.568;2023-07-16T17:02:38;4.55;;;2.03;;
11827;SDS011;5971;49.646;8.568;2023-07-16T17:05:40;3.58;;;2.20;;
11827;SDS011;5971;49.646;8.568;2023-07-16T17:08:41;4.22;;;2.00;;
11827;SDS011;5971;49.646;8.568;2023-07-16T17:11:43;5.18;;;1.83;;
11827;SDS011;5971;49.646;8.568;2023-07-16T17:14:44;5.75;;;2.30;;
11827;SDS011;5971;49.646;8.568;2023-07-16T17:17:48;5.13;;;2.13;;
11827;SDS011;5971;49.646;8.568;2023-07-16T17:20:50;4.20;;;2.08;;
11827;SDS011;5971;49.646;8.568;2023-07-16T17:23:51;3.85;;;2.22;;
11827;SDS011;5971;49.646;8.568;2023-07-16T17:26:53;3.42;;;1.88;;
11827;SDS011;5971;49.646;8.568;2023-07-16T17:29:55;3.53;;;1.85;;
11827;SDS011;5971;49.646;8.568;2023-07-16T17:32:57;3.88;;;2.10;;
11827;SDS011;5971;49.646;8.568;2023-07-16T17:35:59;3.75;;;2.03;;
11827;SDS011;5971;49.646;8.568;2023-07-16T17:39:00;4.28;;;1.90;;
11827;SDS011;5971;49.646;8.568;2023-07-16T17:42:02;4.65;;;2.20;;
11827;SDS011;5971;49.646;8.568;2023-07-16T17:45:04;4.50;;;2.10;;
11827;SDS011;5971;49.646;8.568;2023-07-16T17:48:05;3.60;;;2.20;;
11827;SDS011;5971;49.646;8.568;2023-07-16T17:51:07;3.83;;;1.98;;
11827;SDS011;5971;49.646;8.568;2023-07-16T17:54:10;4.35;;;2.05;;
11827;SDS011;5971;49.646;8.568;2023-07-16T17:57:11;4.53;;;2.25;;
11827;SDS011;5971;49.646;8.568;2023-07-16T18:00:13;3.97;;;2.30;;
11827;SDS011;5971;49.646;8.568;2023-07-16T18:03:25;4.53;;;2.30;;
11827;SDS011;5971;49.646;8.568;2023-07-16T18:06:27;4.03;;;2.08;;
11827;SDS011;5971;49.646;8.568;2023-07-16T18:09:28;4.88;;;2.13;;
11827;SDS011;5971;49.646;8.568;2023-07-16T18:12:30;4.22;;;2.03;;
11827;SDS011;5971;49.646;8.568;2023-07-16T18:15:31;4.93;;;2.30;;
11827;SDS011;5971;49.646;8.568;2023-07-16T18:18:33;4.90;;;2.30;;
11827;SDS011;5971;49.646;8.568;2023-07-16T18:21:35;4.95;;;2.05;;
11827;SDS011;5971;49.646;8.568;2023-07-16T18:24:44;3.78;;;2.22;;
11827;SDS011;5971;49.646;8.568;2023-07-16T18:27:46;4.90;;;2.50;;
11827;SDS011;5971;49.646;8.568;2023-07-16T18:30:47;5.32;;;2.40;;
11827;SDS011;5971;49.646;8.568;2023-07-16T18:33:48;3.78;;;2.33;;
11827;SDS011;5971;49.646;8.568;2023-07-16T18:36:54;4.00;;;2.10;;
11827;SDS011;5971;49.646;8.568;2023-07-16T18:39:55;6.07;;;2.28;;
11827;SDS011;5971;49.646;8.568;2023-07-16T18:42:57;4.75;;;2.55;;
11827;SDS011;5971;49.646;8.568;2023-07-16T18:46:00;4.75;;;2.38;;
11827;SDS011;5971;49.646;8.568;2023-07-16T18:49:02;4.78;;;2.40;;